createdAt,value
2023-01-30T00:02:23.882Z,71.26
2023-01-30T00:04:57.522Z,71.29
2023-01-30T00:07:31.128Z,71.24
2023-01-30T00:10:05.218Z,71.21
2023-01-30T00:12:38.666Z,71.27
2023-01-30T00:15:12.823Z,71.36
2023-01-30T00:17:46.424Z,71.32
2023-01-30T00:20:20.583Z,71.38
2023-01-30T00:23:00.885Z,71.36
2023-01-30T00:25:31.638Z,71.35
2023-01-30T00:28:05.212Z,71.28
2023-01-30T00:30:38.629Z,71.28
2023-01-30T00:33:12.232Z,71.23
2023-01-30T00:35:47.032Z,71.26
2023-01-30T00:38:21.363Z,71.29
2023-01-30T00:40:54.871Z,71.28
2023-01-30T00:43:46.055Z,71.30
2023-01-30T00:46:45.038Z,71.47
2023-01-30T00:49:18.548Z,71.52
2023-01-30T00:51:52.159Z,71.56
2023-01-30T00:54:25.758Z,71.62
2023-01-30T00:56:59.236Z,71.61
2023-01-30T00:59:32.630Z,71.56
2023-01-30T01:02:05.895Z,71.59
2023-01-30T01:04:41.595Z,71.69
2023-01-30T01:07:17.286Z,71.69
2023-01-30T01:09:50.931Z,71.63
2023-01-30T01:12:24.368Z,71.57
2023-01-30T01:14:57.936Z,71.54
2023-01-30T01:17:31.487Z,71.55
2023-01-30T01:20:05.903Z,71.56
2023-01-30T01:22:39.502Z,71.62
2023-01-30T01:25:14.012Z,71.71
2023-01-30T01:27:47.689Z,71.83
2023-01-30T01:30:22.702Z,71.95
2023-01-30T01:32:56.132Z,72.00
2023-01-30T01:35:29.831Z,72.13
2023-01-30T01:38:03.309Z,72.26
2023-01-30T01:40:54.572Z,72.33
2023-01-30T01:43:28.496Z,72.25
2023-01-30T01:46:04.652Z,72.36
2023-01-30T01:48:41.542Z,72.58
2023-01-30T01:51:17.680Z,72.64
2023-01-30T01:53:53.992Z,72.62
2023-01-30T01:56:28.827Z,72.69
2023-01-30T01:59:05.716Z,72.78
2023-01-30T02:01:39.265Z,72.94
2023-01-30T02:04:13.997Z,72.91
2023-01-30T02:06:49.006Z,72.89
2023-01-30T02:09:22.390Z,72.85
2023-01-30T02:11:58.512Z,73.00
2023-01-30T02:14:33.769Z,73.12
2023-01-30T02:17:09.096Z,73.23
2023-01-30T02:19:46.418Z,73.23
2023-01-30T02:23:12.363Z,73.28
2023-01-30T02:26:17.935Z,73.29
2023-01-30T02:32:05.873Z,73.43
2023-01-30T02:34:49.794Z,73.56
2023-01-30T02:37:31.579Z,73.65
2023-01-30T02:40:14.199Z,73.66
2023-01-30T02:42:51.545Z,73.64
2023-01-30T02:45:26.651Z,73.63
2023-01-30T02:48:02.963Z,73.64
2023-01-30T02:50:40.173Z,73.83
2023-01-30T02:53:13.960Z,73.99
2023-01-30T02:55:47.551Z,74.04
2023-01-30T02:58:23.448Z,74.05
2023-01-30T03:01:35.668Z,74.23
2023-01-30T03:04:46.225Z,74.25
2023-01-30T03:07:26.433Z,74.18
2023-01-30T03:10:06.858Z,74.13
2023-01-30T03:12:45.101Z,74.04
2023-01-30T03:15:21.674Z,74.08
2023-01-30T03:17:56.348Z,74.05
2023-01-30T03:20:29.782Z,74.02
2023-01-30T03:23:03.070Z,73.95
2023-01-30T03:25:38.652Z,73.82
2023-01-30T03:28:14.889Z,73.79
2023-01-30T03:30:49.759Z,73.88
2023-01-30T03:33:23.277Z,73.85
2023-01-30T03:35:57.216Z,73.75
2023-01-30T03:38:30.611Z,73.66
2023-01-30T03:41:05.919Z,73.50
2023-01-30T03:43:39.747Z,73.53
2023-01-30T03:46:13.057Z,73.59
2023-01-30T03:48:46.699Z,73.62
2023-01-30T03:51:23.165Z,73.54
2023-01-30T03:53:56.839Z,73.46
2023-01-30T03:56:30.009Z,73.31
2023-01-30T03:59:03.252Z,73.42
2023-01-30T04:01:38.643Z,73.43
2023-01-30T04:04:12.433Z,73.19
2023-01-30T04:06:46.205Z,73.30
2023-01-30T04:09:19.624Z,73.47
2023-01-30T04:11:54.559Z,73.32
2023-01-30T04:14:28.088Z,73.23
2023-01-30T04:17:12.417Z,73.35
2023-01-30T04:19:59.378Z,73.37
2023-01-30T04:22:33.601Z,73.39
2023-01-30T04:25:08.003Z,73.41
2023-01-30T04:27:43.424Z,73.47
2023-01-30T04:30:27.239Z,73.36
2023-01-30T04:33:02.475Z,73.30
2023-01-30T04:35:35.973Z,73.42
2023-01-30T04:38:09.513Z,73.35
2023-01-30T04:40:43.080Z,73.25
2023-01-30T04:43:16.485Z,73.33
2023-01-30T04:46:03.671Z,73.30
2023-01-30T04:48:40.555Z,73.19
2023-01-30T04:51:14.351Z,73.28
2023-01-30T04:53:48.253Z,73.46
2023-01-30T04:56:21.838Z,73.33
2023-01-30T04:58:55.735Z,73.29
2023-01-30T05:01:33.206Z,73.09
2023-01-30T05:04:07.952Z,73.00
2023-01-30T05:06:41.663Z,72.91
2023-01-30T05:09:15.150Z,73.01
2023-01-30T05:11:48.770Z,73.18
2023-01-30T05:14:22.157Z,73.22
2023-01-30T05:16:55.354Z,73.28
2023-01-30T05:19:28.725Z,73.15
2023-01-30T05:22:02.186Z,73.21
2023-01-30T05:24:36.957Z,73.24
2023-01-30T05:27:10.264Z,73.22
2023-01-30T05:29:43.829Z,73.22
2023-01-30T05:32:18.917Z,73.11
2023-01-30T05:34:52.500Z,73.03
2023-01-30T05:37:26.163Z,73.21
2023-01-30T05:40:00.562Z,73.28
2023-01-30T05:42:35.363Z,73.11
2023-01-30T05:45:13.661Z,73.10
2023-01-30T05:47:48.289Z,72.94
2023-01-30T05:50:21.980Z,72.97
2023-01-30T05:52:55.416Z,72.92
2023-01-30T05:55:29.012Z,73.01
2023-01-30T05:58:02.463Z,73.11
2023-01-30T06:00:39.124Z,73.06
2023-01-30T06:03:13.204Z,72.93
2023-01-30T06:05:46.915Z,72.97
2023-01-30T06:08:20.762Z,73.21
2023-01-30T06:10:54.294Z,73.25
2023-01-30T06:13:27.561Z,73.29
2023-01-30T06:16:01.123Z,73.28
2023-01-30T06:18:34.506Z,73.30
2023-01-30T06:21:09.249Z,73.32
2023-01-30T06:23:42.770Z,73.17
2023-01-30T06:26:16.243Z,72.95
2023-01-30T06:28:50.143Z,73.24
2023-01-30T06:31:23.906Z,73.37
2023-01-30T06:33:59.281Z,73.34
2023-01-30T06:36:32.414Z,73.20
2023-01-30T06:39:06.076Z,72.91
2023-01-30T06:41:39.318Z,72.92
2023-01-30T06:44:13.009Z,73.20
2023-01-30T06:46:46.111Z,73.22
2023-01-30T06:49:19.464Z,73.03
2023-01-30T06:51:53.865Z,73.19
2023-01-30T06:54:27.469Z,73.20
2023-01-30T06:57:00.999Z,73.31
2023-01-30T06:59:34.703Z,73.38
2023-01-30T07:02:08.516Z,73.37
2023-01-30T07:04:42.691Z,73.35
2023-01-30T07:07:16.342Z,73.39
2023-01-30T07:10:06.784Z,73.40
2023-01-30T07:12:26.964Z,73.40
2023-01-30T07:15:00.541Z,73.29
2023-01-30T07:17:33.851Z,73.36
2023-01-30T07:20:08.188Z,73.49
2023-01-30T07:22:41.565Z,73.39
2023-01-30T07:25:14.846Z,73.30
2023-01-30T07:27:52.993Z,73.23
2023-01-30T07:30:27.192Z,73.29
2023-01-30T07:33:01.777Z,73.36
2023-01-30T07:35:36.951Z,73.50
2023-01-30T07:38:10.436Z,73.28
2023-01-30T07:40:43.933Z,73.44
2023-01-30T07:43:17.067Z,73.15
2023-01-30T07:45:51.062Z,73.23
2023-01-30T07:48:24.651Z,73.24
2023-01-30T07:50:59.354Z,72.91
2023-01-30T07:53:32.382Z,72.96
2023-01-30T07:56:10.785Z,73.06
2023-01-30T07:58:44.183Z,73.24
2023-01-30T08:01:18.277Z,73.11
2023-01-30T08:03:53.205Z,73.18
2023-01-30T08:06:26.634Z,73.30
2023-01-30T08:08:59.928Z,73.17
2023-01-30T08:11:33.630Z,73.43
2023-01-30T08:14:06.991Z,73.47
2023-01-30T08:16:40.652Z,73.41
2023-01-30T08:19:14.620Z,73.39
2023-01-30T08:21:48.397Z,73.32
2023-01-30T08:24:21.858Z,73.35
2023-01-30T08:26:57.333Z,73.28
2023-01-30T08:29:30.927Z,73.57
2023-01-30T08:32:04.531Z,73.73
2023-01-30T08:34:38.086Z,73.71
2023-01-30T08:37:11.589Z,73.87
2023-01-30T08:39:45.605Z,73.91
2023-01-30T08:42:19.377Z,73.98
2023-01-30T08:44:53.051Z,73.72
2023-01-30T08:47:26.882Z,73.79
2023-01-30T08:50:00.639Z,73.68
2023-01-30T08:52:34.993Z,73.93
2023-01-30T08:55:10.392Z,73.94
2023-01-30T08:57:44.302Z,73.81
2023-01-30T09:00:19.852Z,73.76
2023-01-30T09:02:55.671Z,73.56
2023-01-30T09:05:30.108Z,73.45
2023-01-30T09:08:03.616Z,73.47
2023-01-30T09:10:37.351Z,73.66
2023-01-30T09:13:12.649Z,73.60
2023-01-30T09:15:46.547Z,73.26
2023-01-30T09:18:20.016Z,73.37
2023-01-30T09:20:53.946Z,73.17
2023-01-30T09:23:27.135Z,73.04
2023-01-30T09:26:00.525Z,72.93
2023-01-30T09:28:33.943Z,73.24
2023-01-30T09:31:07.891Z,73.42
2023-01-30T09:33:41.082Z,73.08
2023-01-30T09:36:14.593Z,73.05
2023-01-30T09:38:48.007Z,72.81
2023-01-30T09:41:40.205Z,72.88
2023-01-30T09:44:31.324Z,72.73
2023-01-30T09:47:08.211Z,72.59
2023-01-30T09:49:45.576Z,72.85
2023-01-30T09:52:24.811Z,72.96
2023-01-30T09:55:02.165Z,72.97
2023-01-30T09:57:37.240Z,72.82
2023-01-30T10:00:15.802Z,72.80
2023-01-30T10:02:54.154Z,72.80
2023-01-30T10:05:30.232Z,72.74
2023-01-30T10:08:51.950Z,72.69
2023-01-30T10:11:38.988Z,72.80
2023-01-30T10:14:53.185Z,72.50
2023-01-30T10:17:35.947Z,72.50
2023-01-30T10:20:21.215Z,72.56
2023-01-30T10:23:02.276Z,72.65
2023-01-30T10:25:38.290Z,72.75
2023-01-30T10:28:16.439Z,72.63
2023-01-30T10:30:53.276Z,72.78
2023-01-30T10:33:30.526Z,72.51
2023-01-30T10:36:07.180Z,72.71
2023-01-30T10:38:44.603Z,72.75
2023-01-30T10:41:24.980Z,72.74
2023-01-30T10:44:02.872Z,72.74
2023-01-30T10:46:38.837Z,72.26
2023-01-30T10:49:19.186Z,72.21
2023-01-30T10:51:57.537Z,72.13
2023-01-30T10:54:34.121Z,72.31
2023-01-30T10:57:11.476Z,72.64
2023-01-30T10:59:50.166Z,72.72
2023-01-30T11:02:28.668Z,72.81
2023-01-30T11:05:04.559Z,72.83
2023-01-30T11:07:38.406Z,72.70
2023-01-30T11:10:18.313Z,72.74
2023-01-30T11:12:54.274Z,72.89
2023-01-30T11:15:29.299Z,73.09
2023-01-30T11:19:08.203Z,73.14
2023-01-30T11:20:48.045Z,73.26
2023-01-30T11:23:28.121Z,73.32
2023-01-30T11:26:11.208Z,72.97
2023-01-30T11:28:43.336Z,73.02
2023-01-30T11:31:35.229Z,73.27
2023-01-30T11:34:04.633Z,73.21
2023-01-30T11:36:39.154Z,73.17
2023-01-30T11:39:24.756Z,73.24
2023-01-30T11:42:05.093Z,73.42
2023-01-30T11:44:39.678Z,73.64
2023-01-30T11:47:16.508Z,73.57
2023-01-30T11:50:03.648Z,73.50
2023-01-30T11:52:31.645Z,73.67
2023-01-30T11:55:08.824Z,73.85
2023-01-30T11:57:48.125Z,73.86
2023-01-30T12:00:24.790Z,73.78
2023-01-30T12:03:01.355Z,74.07
2023-01-30T12:05:36.043Z,74.31
2023-01-30T12:08:31.184Z,74.24
2023-01-30T12:11:00.480Z,74.26
2023-01-30T12:13:37.732Z,74.08
2023-01-30T12:16:22.079Z,74.28
2023-01-30T12:18:59.169Z,74.39
2023-01-30T12:21:39.817Z,74.48
2023-01-30T12:24:19.533Z,74.60
2023-01-30T12:26:56.787Z,74.55
2023-01-30T12:29:33.639Z,74.59
2023-01-30T12:32:11.318Z,74.62
2023-01-30T12:34:45.642Z,74.73
2023-01-30T12:37:39.122Z,74.86
2023-01-30T12:40:22.941Z,75.00
2023-01-30T12:43:06.899Z,75.12
2023-01-30T12:45:43.252Z,75.03
2023-01-30T12:48:44.061Z,75.24
2023-01-30T12:51:17.307Z,75.04
2023-01-30T12:53:58.794Z,75.10
2023-01-30T12:56:47.493Z,75.09
2023-01-30T12:59:25.120Z,75.09
2023-01-30T13:02:06.598Z,74.98
2023-01-30T13:05:01.675Z,75.07
2023-01-30T13:07:23.996Z,74.97
2023-01-30T13:10:05.284Z,75.02
2023-01-30T13:12:42.540Z,74.99
2023-01-30T13:15:22.219Z,75.09
2023-01-30T13:18:04.864Z,75.02
2023-01-30T13:23:49.929Z,75.20
2023-01-30T13:26:26.454Z,74.99
2023-01-30T13:29:03.342Z,74.89
2023-01-30T13:31:40.108Z,75.04
2023-01-30T13:34:16.578Z,75.11
2023-01-30T13:36:52.494Z,75.16
2023-01-30T13:39:31.538Z,75.25
2023-01-30T13:42:08.797Z,75.26
2023-01-30T13:44:45.317Z,75.19
2023-01-30T13:47:24.485Z,75.15
2023-01-30T13:50:04.032Z,75.36
2023-01-30T13:52:40.709Z,75.53
2023-01-30T13:55:17.870Z,75.73
2023-01-30T13:57:54.527Z,75.87
2023-01-30T14:00:33.284Z,75.97
2023-01-30T14:03:31.851Z,75.90
2023-01-30T14:06:47.916Z,75.98
2023-01-30T14:09:24.535Z,76.03
2023-01-30T14:12:04.056Z,75.99
2023-01-30T14:14:40.191Z,76.10
2023-01-30T14:17:18.513Z,76.16
2023-01-30T14:23:00.728Z,76.27
2023-01-30T14:25:46.532Z,76.15
2023-01-30T14:28:57.206Z,76.15
2023-01-30T14:31:58.584Z,76.16
2023-01-30T14:34:49.252Z,76.03
2023-01-30T14:37:58.434Z,76.01
2023-01-30T14:40:53.148Z,75.93
2023-01-30T14:43:53.023Z,75.89
2023-01-30T14:46:54.457Z,75.77
2023-01-30T14:49:38.488Z,75.56
2023-01-30T14:52:27.395Z,75.52
2023-01-30T14:55:00.859Z,75.40
2023-01-30T14:57:34.975Z,74.97
2023-01-30T15:00:19.527Z,74.76
2023-01-30T15:02:55.655Z,74.51
2023-01-30T15:05:35.524Z,74.33
2023-01-30T15:08:12.594Z,74.42
2023-01-30T15:10:56.476Z,74.22
2023-01-30T15:14:01.168Z,74.13
2023-01-30T15:16:45.061Z,74.02
2023-01-30T15:19:26.440Z,73.96
2023-01-30T15:22:06.569Z,73.95
2023-01-30T15:24:49.667Z,73.86
2023-01-30T15:27:27.387Z,73.46
2023-01-30T15:30:14.041Z,73.54
2023-01-30T15:32:46.917Z,73.63
2023-01-30T15:35:30.188Z,73.43
2023-01-30T15:38:03.436Z,73.55
2023-01-30T15:40:37.954Z,73.40
2023-01-30T15:43:18.108Z,73.27
2023-01-30T15:45:58.656Z,73.24
2023-01-30T15:48:43.613Z,73.18
2023-01-30T15:51:19.667Z,73.02
2023-01-30T15:53:52.978Z,73.06
2023-01-30T15:56:28.297Z,73.01
2023-01-30T15:59:03.054Z,73.00
2023-01-30T16:01:36.547Z,72.99
2023-01-30T16:04:28.269Z,72.97
2023-01-30T16:07:01.494Z,72.87
2023-01-30T16:09:35.935Z,72.81
2023-01-30T16:12:25.525Z,72.61
2023-01-30T16:15:17.192Z,72.63
2023-01-30T16:17:35.605Z,72.39
2023-01-30T16:20:14.463Z,72.18
2023-01-30T16:22:48.411Z,72.04
2023-01-30T16:25:27.242Z,71.69
2023-01-30T16:28:00.762Z,71.93
2023-01-30T16:30:34.390Z,71.93
2023-01-30T16:33:10.790Z,71.85
2023-01-30T16:35:47.216Z,72.02
2023-01-30T16:38:32.669Z,72.10
2023-01-30T16:41:06.090Z,71.72
2023-01-30T16:43:40.855Z,71.73
2023-01-30T16:46:57.161Z,71.81
2023-01-30T16:49:47.733Z,71.94
2023-01-30T16:52:24.060Z,71.61
2023-01-30T16:54:59.183Z,71.38
2023-01-30T16:57:37.412Z,71.53
2023-01-30T17:00:16.759Z,71.71
2023-01-30T17:02:53.115Z,71.57
2023-01-30T17:05:28.565Z,71.50
2023-01-30T17:08:01.589Z,71.04
2023-01-30T17:10:56.474Z,70.87
2023-01-30T17:13:35.609Z,71.15
2023-01-30T17:19:21.219Z,70.86
2023-01-30T17:21:55.041Z,70.67
2023-01-30T17:24:29.274Z,70.78
2023-01-30T17:27:04.948Z,70.82
2023-01-30T17:29:43.097Z,70.75
2023-01-30T17:32:15.395Z,70.77
2023-01-30T17:34:48.533Z,70.76
2023-01-30T17:37:23.188Z,71.05
2023-01-30T17:39:56.305Z,71.01
2023-01-30T17:42:29.468Z,71.20
2023-01-30T17:45:04.267Z,71.43
2023-01-30T17:47:36.845Z,71.39
2023-01-30T17:50:14.844Z,71.19
2023-01-30T17:52:47.962Z,71.37
2023-01-30T17:55:22.227Z,71.22
2023-01-30T17:57:56.615Z,71.22
2023-01-30T18:00:30.066Z,71.28
2023-01-30T18:03:03.284Z,71.30
2023-01-30T18:05:37.430Z,71.23
2023-01-30T18:08:10.627Z,71.24
2023-01-30T18:10:44.272Z,71.24
2023-01-30T18:13:17.713Z,71.09
2023-01-30T18:15:51.835Z,71.10
2023-01-30T18:18:25.625Z,71.26
2023-01-30T18:20:59.247Z,71.27
2023-01-30T18:23:32.797Z,71.20
2023-01-30T18:26:06.321Z,71.02
2023-01-30T18:28:40.151Z,71.14
2023-01-30T18:31:14.422Z,71.21
2023-01-30T18:33:53.424Z,71.33
2023-01-30T18:36:28.125Z,71.32
2023-01-30T18:39:01.570Z,71.45
2023-01-30T18:41:36.782Z,71.31
2023-01-30T18:44:11.958Z,71.41
2023-01-30T18:46:45.253Z,71.43
2023-01-30T18:49:18.753Z,71.44
2023-01-30T18:51:51.993Z,71.45
2023-01-30T18:54:25.148Z,71.40
2023-01-30T18:56:58.649Z,71.52
2023-01-30T18:59:32.361Z,71.56
2023-01-30T19:02:05.993Z,71.52
2023-01-30T19:04:40.407Z,71.52
2023-01-30T19:07:16.360Z,71.66
2023-01-30T19:09:50.522Z,71.69
2023-01-30T19:12:42.424Z,71.75
2023-01-30T19:15:16.019Z,71.87
2023-01-30T19:17:49.075Z,72.03
2023-01-30T19:20:24.094Z,72.14
2023-01-30T19:22:58.351Z,72.26
2023-01-30T19:25:31.707Z,72.29
2023-01-30T19:28:06.737Z,72.44
2023-01-30T19:30:40.440Z,72.47
2023-01-30T19:33:14.128Z,72.50
2023-01-30T19:35:47.295Z,72.65
2023-01-30T19:38:21.252Z,72.64
2023-01-30T19:40:54.357Z,72.75
2023-01-30T19:43:28.635Z,72.80
2023-01-30T19:46:02.707Z,72.85
2023-01-30T19:48:40.604Z,72.82
2023-01-30T19:51:14.006Z,73.03
2023-01-30T19:53:51.599Z,73.06
2023-01-30T19:56:27.338Z,73.06
2023-01-30T19:59:02.344Z,73.01
2023-01-30T20:01:38.000Z,72.90
2023-01-30T20:04:11.269Z,72.95
2023-01-30T20:06:46.187Z,73.01
2023-01-30T20:09:19.507Z,73.00
2023-01-30T20:11:52.639Z,73.14
2023-01-30T20:14:25.988Z,73.31
2023-01-30T20:16:59.194Z,73.54
2023-01-30T20:19:32.388Z,73.76
2023-01-30T20:22:07.102Z,73.92
2023-01-30T20:24:40.548Z,74.21
2023-01-30T20:27:13.688Z,74.43
2023-01-30T20:29:46.836Z,74.50
2023-01-30T20:32:20.644Z,74.59
2023-01-30T20:34:54.136Z,74.76
2023-01-30T20:37:28.030Z,74.83
2023-01-30T20:40:01.182Z,74.84
2023-01-30T20:42:34.592Z,74.88
2023-01-30T20:45:10.276Z,74.89
2023-01-30T20:47:43.483Z,74.86
2023-01-30T20:50:17.822Z,74.98
2023-01-30T20:52:52.704Z,74.90
2023-01-30T20:55:25.773Z,74.78
2023-01-30T20:57:58.958Z,74.83
2023-01-30T21:00:32.035Z,74.83
2023-01-30T21:03:05.216Z,74.85
2023-01-30T21:05:38.336Z,74.88
2023-01-30T21:08:11.606Z,74.95
2023-01-30T21:10:46.737Z,74.79
2023-01-30T21:13:19.843Z,74.81
2023-01-30T21:16:04.090Z,74.83
2023-01-30T21:18:39.488Z,74.85
2023-01-30T21:21:17.794Z,74.92
2023-01-30T21:23:52.273Z,74.84
2023-01-30T21:26:28.435Z,74.93
2023-01-30T21:29:02.862Z,75.06
2023-01-30T21:31:37.752Z,75.11
2023-01-30T21:34:12.088Z,75.16
2023-01-30T21:36:46.873Z,75.22
2023-01-30T21:39:38.000Z,75.16
2023-01-30T21:42:28.521Z,75.13
2023-01-30T21:45:02.509Z,75.20
2023-01-30T21:47:37.387Z,75.17
2023-01-30T21:50:12.499Z,75.20
2023-01-30T21:52:45.715Z,75.21
2023-01-30T21:55:19.214Z,75.32
2023-01-30T21:57:53.587Z,75.38
2023-01-30T22:00:27.298Z,75.35
2023-01-30T22:03:00.400Z,75.40
2023-01-30T22:05:36.795Z,75.45
2023-01-30T22:08:09.975Z,75.42
2023-01-30T22:10:43.626Z,75.45
2023-01-30T22:13:17.150Z,75.42
2023-01-30T22:15:50.680Z,75.49
2023-01-30T22:18:23.754Z,75.43
2023-01-30T22:21:01.420Z,75.45
2023-01-30T22:23:36.319Z,75.45
2023-01-30T22:26:10.896Z,75.58
2023-01-30T22:28:44.228Z,75.50
2023-01-30T22:31:19.604Z,75.48
2023-01-30T22:33:55.068Z,75.56
2023-01-30T22:36:30.133Z,75.59
2023-01-30T22:39:04.203Z,75.57
2023-01-30T22:41:38.657Z,75.53
2023-01-30T22:44:12.460Z,75.57
2023-01-30T22:46:45.819Z,75.46
2023-01-30T22:49:19.408Z,75.39
2023-01-30T22:51:52.582Z,75.45
2023-01-30T22:54:27.232Z,75.52
2023-01-30T22:57:00.645Z,75.61
2023-01-30T22:59:34.088Z,75.46
2023-01-30T23:02:10.481Z,75.54
2023-01-30T23:04:43.975Z,75.63
2023-01-30T23:07:18.062Z,75.49
2023-01-30T23:09:51.169Z,75.44
2023-01-30T23:12:41.999Z,75.42
2023-01-30T23:15:15.478Z,75.29
2023-01-30T23:18:06.354Z,75.22
2023-01-30T23:20:40.307Z,75.17
2023-01-30T23:23:13.837Z,75.12
2023-01-30T23:25:47.040Z,75.21
2023-01-30T23:28:21.354Z,75.17
2023-01-30T23:30:54.718Z,75.28
2023-01-30T23:33:28.057Z,75.12
2023-01-30T23:36:05.557Z,75.10
2023-01-30T23:38:38.918Z,75.07
2023-01-30T23:41:14.907Z,74.98
2023-01-30T23:43:49.347Z,75.16
2023-01-30T23:46:25.107Z,75.29
2023-01-30T23:49:00.161Z,75.35
2023-01-30T23:51:35.481Z,75.10
2023-01-30T23:54:09.757Z,75.22
2023-01-30T23:56:45.775Z,75.22
2023-01-30T23:59:19.240Z,75.09
